createdAt,value
2023-04-16T00:01:03.849Z,1001
2023-04-16T00:02:20.144Z,1001
2023-04-16T00:03:36.443Z,1001
2023-04-16T00:04:52.743Z,1001
2023-04-16T00:06:09.066Z,1001
2023-04-16T00:07:25.340Z,1001
2023-04-16T00:08:41.625Z,1001.1
2023-04-16T00:09:57.913Z,1001.1
2023-04-16T00:11:14.206Z,1001.1
2023-04-16T00:12:30.497Z,1001.1
2023-04-16T00:13:46.807Z,1001.1
2023-04-16T00:15:02.129Z,1001.1
2023-04-16T00:16:18.399Z,1001.1
2023-04-16T00:17:34.707Z,1001
2023-04-16T00:18:51.011Z,1001.1
2023-04-16T00:20:07.284Z,1001.1
2023-04-16T00:21:23.577Z,1001.1
2023-04-16T00:22:39.872Z,1001.1
2023-04-16T00:23:56.188Z,1001.1
2023-04-16T00:25:12.461Z,1001.1
2023-04-16T00:26:28.758Z,1001.1
2023-04-16T00:27:45.048Z,1001.1
2023-04-16T00:29:01.351Z,1001.1
2023-04-16T00:30:17.639Z,1001.1
2023-04-16T00:31:32.952Z,1001.1
2023-04-16T00:32:49.233Z,1001.1
2023-04-16T00:34:05.542Z,1001.1
2023-04-16T00:35:21.839Z,1001.1
2023-04-16T00:36:38.124Z,1001.1
2023-04-16T00:37:54.417Z,1001.1
2023-04-16T00:39:10.710Z,1001.1
2023-04-16T00:40:27.017Z,1001.1
2023-04-16T00:41:43.307Z,1001.1
2023-04-16T00:42:59.588Z,1001.1
2023-04-16T00:44:15.882Z,1001.1
2023-04-16T00:45:32.188Z,1001.1
2023-04-16T00:46:48.488Z,1001.1
2023-04-16T00:48:03.798Z,1001.1
2023-04-16T00:49:20.104Z,1001.1
2023-04-16T00:50:36.384Z,1001
2023-04-16T00:51:52.676Z,1001
2023-04-16T00:53:08.996Z,1001
2023-04-16T00:54:25.255Z,1001
2023-04-16T00:55:41.553Z,1001
2023-04-16T00:56:57.868Z,1001
2023-04-16T00:58:14.142Z,1001.1
2023-04-16T00:59:30.442Z,1001.1
2023-04-16T01:00:46.733Z,1001.1
2023-04-16T01:02:03.016Z,1001.1
2023-04-16T01:03:19.317Z,1001.1
2023-04-16T01:04:34.620Z,1001.1
2023-04-16T01:05:50.929Z,1001.1
2023-04-16T01:07:07.221Z,1001.1
2023-04-16T01:08:23.537Z,1001.2
2023-04-16T01:09:39.792Z,1001.2
2023-04-16T01:10:56.101Z,1001.2
2023-04-16T01:12:12.394Z,1001.2
2023-04-16T01:13:28.674Z,1001.2
2023-04-16T01:14:44.972Z,1001.2
2023-04-16T01:16:01.307Z,1001.3
2023-04-16T01:17:17.562Z,1001.3
2023-04-16T01:18:33.862Z,1001.3
2023-04-16T01:19:50.163Z,1001.3
2023-04-16T01:21:05.460Z,1001.3
2023-04-16T01:22:21.789Z,1001.3
2023-04-16T01:23:38.059Z,1001.4
2023-04-16T01:24:54.339Z,1001.4
2023-04-16T01:26:10.634Z,1001.3
2023-04-16T01:27:26.969Z,1001.4
2023-04-16T01:28:43.237Z,1001.4
2023-04-16T01:29:59.513Z,1001.4
2023-04-16T01:31:15.807Z,1001.4
2023-04-16T01:32:32.000Z,1001.4
2023-04-16T01:33:48.396Z,1001.4
2023-04-16T01:35:04.691Z,1001.4
2023-04-16T01:36:20.986Z,1001.4
2023-04-16T01:37:36.306Z,1001.5
2023-04-16T01:38:52.598Z,1001.5
2023-04-16T01:40:08.916Z,1001.5
2023-04-16T01:41:25.193Z,1001.5
2023-04-16T01:42:41.475Z,1001.5
2023-04-16T01:43:57.777Z,1001.5
2023-04-16T01:45:14.074Z,1001.5
2023-04-16T01:46:30.354Z,1001.5
2023-04-16T01:47:46.692Z,1001.5
2023-04-16T01:49:02.957Z,1001.6
2023-04-16T01:50:19.246Z,1001.5
2023-04-16T01:51:35.552Z,1001.5
2023-04-16T01:52:51.860Z,1001.5
2023-04-16T01:54:07.155Z,1001.5
2023-04-16T01:55:23.432Z,1001.5
2023-04-16T01:56:39.736Z,1001.5
2023-04-16T01:57:56.030Z,1001.5
2023-04-16T01:59:12.326Z,1001.4
2023-04-16T02:00:28.608Z,1001.5
2023-04-16T02:01:44.918Z,1001.5
2023-04-16T02:03:01.205Z,1001.5
2023-04-16T02:04:17.502Z,1001.5
2023-04-16T02:05:33.819Z,1001.4
2023-04-16T02:06:50.090Z,1001.5
2023-04-16T02:08:06.388Z,1001.5
2023-04-16T02:09:22.688Z,1001.5
2023-04-16T02:10:38.981Z,1001.5
2023-04-16T02:11:54.288Z,1001.5
2023-04-16T02:13:10.580Z,1001.5
2023-04-16T02:14:26.861Z,1001.5
2023-04-16T02:15:43.168Z,1001.5
2023-04-16T02:16:59.466Z,1001.5
2023-04-16T02:18:15.768Z,1001.5
2023-04-16T02:19:32.050Z,1001.5
2023-04-16T02:20:48.335Z,1001.5
2023-04-16T02:22:04.637Z,1001.5
2023-04-16T02:23:20.923Z,1001.5
2023-04-16T02:24:37.219Z,1001.5
2023-04-16T02:25:53.512Z,1001.5
2023-04-16T02:27:09.817Z,1001.6
2023-04-16T02:28:25.135Z,1001.6
2023-04-16T02:29:41.422Z,1001.6
2023-04-16T02:30:57.000Z,1001.5
2023-04-16T02:32:14.007Z,1001.5
2023-04-16T02:33:30.305Z,1001.5
2023-04-16T02:34:45.608Z,1001.6
2023-04-16T02:36:01.920Z,1001.6
2023-04-16T02:37:18.204Z,1001.7
2023-04-16T02:38:34.496Z,1001.6
2023-04-16T02:39:50.786Z,1001.6
2023-04-16T02:41:07.096Z,1001.6
2023-04-16T02:42:23.383Z,1001.7
2023-04-16T02:43:39.672Z,1001.7
2023-04-16T02:44:55.969Z,1001.7
2023-04-16T02:46:12.267Z,1001.7
2023-04-16T02:47:28.559Z,1001.7
2023-04-16T02:48:44.850Z,1001.7
2023-04-16T02:50:01.147Z,1001.7
2023-04-16T02:51:16.468Z,1001.7
2023-04-16T02:52:32.757Z,1001.7
2023-04-16T02:53:49.053Z,1001.7
2023-04-16T02:55:05.338Z,1001.7
2023-04-16T02:56:21.643Z,1001.7
2023-04-16T02:57:37.000Z,1001.7
2023-04-16T02:58:54.223Z,1001.7
2023-04-16T03:00:10.510Z,1001.7
2023-04-16T03:01:26.812Z,1001.7
2023-04-16T03:02:43.100Z,1001.7
2023-04-16T03:03:59.405Z,1001.7
2023-04-16T03:05:15.694Z,1001.8
2023-04-16T03:06:31.992Z,1001.8
2023-04-16T03:07:47.302Z,1001.8
2023-04-16T03:09:03.589Z,1001.8
2023-04-16T03:10:19.896Z,1001.8
2023-04-16T03:11:36.178Z,1001.8
2023-04-16T03:12:52.486Z,1001.9
2023-04-16T03:14:08.766Z,1001.8
2023-04-16T03:15:25.065Z,1001.9
2023-04-16T03:16:41.351Z,1001.9
2023-04-16T03:17:57.661Z,1001.9
2023-04-16T03:19:13.956Z,1001.8
2023-04-16T03:20:30.252Z,1001.9
2023-04-16T03:21:46.549Z,1001.9
2023-04-16T03:23:02.825Z,1001.9
2023-04-16T03:24:18.137Z,1001.9
2023-04-16T03:25:34.442Z,1001.9
2023-04-16T03:26:50.736Z,1001.9
2023-04-16T03:28:07.037Z,1001.9
2023-04-16T03:29:23.319Z,1001.9
2023-04-16T03:30:39.618Z,1001.9
2023-04-16T03:31:55.918Z,1001.9
2023-04-16T03:33:12.219Z,1001.9
2023-04-16T03:34:28.000Z,1002
2023-04-16T03:35:44.797Z,1002
2023-04-16T03:37:01.081Z,1002
2023-04-16T03:38:17.374Z,1002
2023-04-16T03:39:33.000Z,1001.9
2023-04-16T03:40:48.995Z,1002
2023-04-16T03:42:05.276Z,1002
2023-04-16T03:43:21.581Z,1002
2023-04-16T03:44:37.878Z,1001.9
2023-04-16T03:45:54.169Z,1002
2023-04-16T03:47:10.454Z,1002
2023-04-16T03:48:26.754Z,1002
2023-04-16T03:49:43.050Z,1002
2023-04-16T03:50:59.348Z,1002
2023-04-16T03:52:15.628Z,1002
2023-04-16T03:53:31.926Z,1002
2023-04-16T03:54:48.222Z,1002
2023-04-16T03:56:04.467Z,1002
2023-04-16T03:57:19.769Z,1002
2023-04-16T03:58:36.063Z,1002
2023-04-16T03:59:52.367Z,1002
2023-04-16T04:01:08.611Z,1002.1
2023-04-16T04:02:24.853Z,1002.1
2023-04-16T04:03:41.094Z,1002.1
2023-04-16T04:04:57.390Z,1002.1
2023-04-16T04:06:13.672Z,1002.1
2023-04-16T04:07:29.973Z,1002.1
2023-04-16T04:08:46.222Z,1002.1
2023-04-16T04:10:02.471Z,1002.2
2023-04-16T04:11:18.712Z,1002.2
2023-04-16T04:12:34.964Z,1002.2
2023-04-16T04:13:50.202Z,1002.3
2023-04-16T04:15:06.435Z,1002.3
2023-04-16T04:16:22.680Z,1002.3
2023-04-16T04:17:38.916Z,1002.3
2023-04-16T04:18:55.165Z,1002.3
2023-04-16T04:20:11.401Z,1002.3
2023-04-16T04:21:27.646Z,1002.3
2023-04-16T04:22:43.892Z,1002.3
2023-04-16T04:24:00.123Z,1002.3
2023-04-16T04:25:16.370Z,1002.4
2023-04-16T04:26:32.602Z,1002.4
2023-04-16T04:27:48.836Z,1002.4
2023-04-16T04:29:05.089Z,1002.3
2023-04-16T04:30:20.332Z,1002.4
2023-04-16T04:31:36.579Z,1002.4
2023-04-16T04:32:52.812Z,1002.4
2023-04-16T04:34:09.056Z,1002.4
2023-04-16T04:35:25.312Z,1002.4
2023-04-16T04:36:41.541Z,1002.4
2023-04-16T04:37:57.777Z,1002.4
2023-04-16T04:39:14.022Z,1002.4
2023-04-16T04:40:30.271Z,1002.4
2023-04-16T04:41:46.513Z,1002.4
2023-04-16T04:43:02.753Z,1002.4
2023-04-16T04:44:18.977Z,1002.5
2023-04-16T04:46:51.463Z,1002.5
2023-04-16T04:48:06.727Z,1002.5
2023-04-16T04:49:22.952Z,1002.5
2023-04-16T04:50:39.223Z,1002.5
2023-04-16T04:51:55.437Z,1002.6
2023-04-16T04:53:11.675Z,1002.6
2023-04-16T04:54:27.917Z,1002.6
2023-04-16T04:55:44.157Z,1002.6
2023-04-16T04:57:00.402Z,1002.6
2023-04-16T04:58:16.633Z,1002.6
2023-04-16T04:59:32.878Z,1002.6
2023-04-16T05:00:49.120Z,1002.6
2023-04-16T05:02:05.366Z,1002.7
2023-04-16T05:03:21.616Z,1002.7
2023-04-16T05:04:36.000Z,1002.7
2023-04-16T05:05:53.106Z,1002.7
2023-04-16T05:07:09.329Z,1002.7
2023-04-16T05:08:25.586Z,1002.7
2023-04-16T05:09:41.820Z,1002.7
2023-04-16T05:10:58.049Z,1002.7
2023-04-16T05:12:14.288Z,1002.8
2023-04-16T05:13:30.527Z,1002.8
2023-04-16T05:14:46.766Z,1002.7
2023-04-16T05:16:03.017Z,1002.8
2023-04-16T05:17:19.265Z,1002.8
2023-04-16T05:18:35.495Z,1002.8
2023-04-16T05:19:51.744Z,1002.8
2023-04-16T05:21:06.985Z,1002.8
2023-04-16T05:22:23.238Z,1002.9
2023-04-16T05:23:39.465Z,1002.8
2023-04-16T05:24:55.702Z,1002.8
2023-04-16T05:26:11.948Z,1002.8
2023-04-16T05:27:28.200Z,1002.8
2023-04-16T05:28:44.428Z,1002.9
2023-04-16T05:30:00.661Z,1002.9
2023-04-16T05:31:16.919Z,1002.9
2023-04-16T05:32:33.144Z,1002.9
2023-04-16T05:33:49.393Z,1002.9
2023-04-16T05:35:05.631Z,1002.9
2023-04-16T05:36:21.890Z,1003
2023-04-16T05:37:37.117Z,1003
2023-04-16T05:38:53.366Z,1003
2023-04-16T05:40:09.598Z,1003
2023-04-16T05:41:25.854Z,1003
2023-04-16T05:42:42.080Z,1003
2023-04-16T05:43:58.000Z,1003
2023-04-16T05:45:14.556Z,1003.1
2023-04-16T05:46:30.000Z,1003
2023-04-16T05:47:47.044Z,1003
2023-04-16T05:49:03.281Z,1003
2023-04-16T05:50:19.527Z,1003
2023-04-16T05:51:35.764Z,1003.1
2023-04-16T05:52:52.014Z,1003
2023-04-16T05:54:07.268Z,1003
2023-04-16T05:55:23.497Z,1003.1
2023-04-16T05:56:39.744Z,1003.1
2023-04-16T05:57:55.985Z,1003.1
2023-04-16T05:59:12.226Z,1003.1
2023-04-16T06:00:28.455Z,1003.2
2023-04-16T06:01:44.703Z,1003.1
2023-04-16T06:03:00.933Z,1003.1
2023-04-16T06:04:17.177Z,1003.2
2023-04-16T06:05:33.431Z,1003.2
2023-04-16T06:06:49.668Z,1003.2
2023-04-16T06:08:05.902Z,1003.2
2023-04-16T06:09:22.137Z,1003.2
2023-04-16T06:10:37.398Z,1003.2
2023-04-16T06:11:53.641Z,1003.2
2023-04-16T06:13:09.894Z,1003.2
2023-04-16T06:14:26.113Z,1003.3
2023-04-16T06:15:42.354Z,1003.3
2023-04-16T06:16:58.588Z,1003.2
2023-04-16T06:18:14.846Z,1003.3
2023-04-16T06:19:31.075Z,1003.2
2023-04-16T06:20:47.314Z,1003.3
2023-04-16T06:22:03.555Z,1003.3
2023-04-16T06:23:19.803Z,1003.3
2023-04-16T06:24:36.033Z,1003.3
2023-04-16T06:25:52.285Z,1003.3
2023-04-16T06:27:07.555Z,1003.4
2023-04-16T06:28:23.768Z,1003.3
2023-04-16T06:29:40.014Z,1003.4
2023-04-16T06:30:56.259Z,1003.3
2023-04-16T06:32:12.503Z,1003.3
2023-04-16T06:33:28.726Z,1003.4
2023-04-16T06:34:44.964Z,1003.4
2023-04-16T06:36:01.204Z,1003.4
2023-04-16T06:37:17.445Z,1003.4
2023-04-16T06:38:33.701Z,1003.4
2023-04-16T06:39:49.921Z,1003.4
2023-04-16T06:41:06.000Z,1003.5
2023-04-16T06:42:22.407Z,1003.4
2023-04-16T06:43:37.000Z,1003.5
2023-04-16T06:44:53.912Z,1003.5
2023-04-16T06:46:10.153Z,1003.5
2023-04-16T06:47:26.384Z,1003.6
2023-04-16T06:48:42.619Z,1003.6
2023-04-16T06:49:57.895Z,1003.6
2023-04-16T06:51:14.115Z,1003.6
2023-04-16T06:52:30.376Z,1003.6
2023-04-16T06:53:46.601Z,1003.6
2023-04-16T06:55:02.846Z,1003.6
2023-04-16T06:56:19.077Z,1003.6
2023-04-16T06:57:35.317Z,1003.6
2023-04-16T06:58:51.560Z,1003.7
2023-04-16T07:00:07.813Z,1003.7
2023-04-16T07:01:24.055Z,1003.6
2023-04-16T07:02:40.281Z,1003.7
2023-04-16T07:03:56.517Z,1003.6
2023-04-16T07:05:12.755Z,1003.7
2023-04-16T07:06:28.018Z,1003.7
2023-04-16T07:07:44.264Z,1003.7
2023-04-16T07:09:00.513Z,1003.7
2023-04-16T07:10:16.755Z,1003.7
2023-04-16T07:11:32.977Z,1003.7
2023-04-16T07:12:49.000Z,1003.7
2023-04-16T07:14:05.465Z,1003.7
2023-04-16T07:15:21.705Z,1003.7
2023-04-16T07:16:37.947Z,1003.7
2023-04-16T07:17:54.183Z,1003.7
2023-04-16T07:19:10.417Z,1003.7
2023-04-16T07:20:26.654Z,1003.8
2023-04-16T07:21:42.919Z,1003.8
2023-04-16T07:22:58.172Z,1003.8
2023-04-16T07:24:14.399Z,1003.9
2023-04-16T07:25:30.640Z,1003.9
2023-04-16T07:26:46.880Z,1003.9
2023-04-16T07:28:03.124Z,1003.9
2023-04-16T07:29:19.352Z,1003.9
2023-04-16T07:30:35.611Z,1003.9
2023-04-16T07:31:51.834Z,1003.9
2023-04-16T07:33:08.078Z,1004
2023-04-16T07:34:24.326Z,1003.9
2023-04-16T07:35:40.585Z,1003.9
2023-04-16T07:36:56.796Z,1003.9
2023-04-16T07:38:13.035Z,1004
2023-04-16T07:39:28.304Z,1004
2023-04-16T07:40:44.563Z,1004
2023-04-16T07:42:00.801Z,1004
2023-04-16T07:43:17.032Z,1004
2023-04-16T07:44:33.285Z,1004.1
2023-04-16T07:45:49.513Z,1004.1
2023-04-16T07:47:05.759Z,1004.1
2023-04-16T07:48:21.988Z,1004.1
2023-04-16T07:49:38.237Z,1004.1
2023-04-16T07:50:54.469Z,1004.1
2023-04-16T07:52:10.718Z,1004.2
2023-04-16T07:53:26.952Z,1004.2
2023-04-16T07:54:43.191Z,1004.1
2023-04-16T07:55:58.445Z,1004.2
2023-04-16T07:57:14.698Z,1004.2
2023-04-16T07:58:30.928Z,1004.3
2023-04-16T07:59:47.176Z,1004.2
2023-04-16T08:01:03.414Z,1004.3
2023-04-16T08:02:19.650Z,1004.3
2023-04-16T08:03:35.904Z,1004.3
2023-04-16T08:04:52.134Z,1004.2
2023-04-16T08:06:08.368Z,1004.2
2023-04-16T08:07:24.614Z,1004.2
2023-04-16T08:08:40.856Z,1004.3
2023-04-16T08:09:57.088Z,1004.2
2023-04-16T08:11:13.333Z,1004.2
2023-04-16T08:12:28.584Z,1004.2
2023-04-16T08:13:44.826Z,1004.3
2023-04-16T08:15:01.063Z,1004.3
2023-04-16T08:16:17.313Z,1004.3
2023-04-16T08:17:33.561Z,1004.3
2023-04-16T08:18:49.791Z,1004.3
2023-04-16T08:20:06.041Z,1004.3
2023-04-16T08:21:22.283Z,1004.4
2023-04-16T08:22:38.520Z,1004.4
2023-04-16T08:23:54.748Z,1004.5
2023-04-16T08:25:11.000Z,1004.4
2023-04-16T08:26:27.236Z,1004.4
2023-04-16T08:27:43.466Z,1004.4
2023-04-16T08:28:58.740Z,1004.5
2023-04-16T08:30:14.964Z,1004.5
2023-04-16T08:31:31.208Z,1004.4
2023-04-16T08:32:47.452Z,1004.5
2023-04-16T08:34:03.696Z,1004.5
2023-04-16T08:35:19.928Z,1004.5
2023-04-16T08:36:36.164Z,1004.5
2023-04-16T08:37:52.412Z,1004.5
2023-04-16T08:39:08.653Z,1004.5
2023-04-16T08:40:24.895Z,1004.5
2023-04-16T08:41:41.128Z,1004.6
2023-04-16T08:42:57.372Z,1004.5
2023-04-16T08:44:13.607Z,1004.6
2023-04-16T08:45:28.862Z,1004.5
2023-04-16T08:46:45.109Z,1004.6
2023-04-16T08:48:01.359Z,1004.6
2023-04-16T08:49:17.587Z,1004.6
2023-04-16T08:50:33.823Z,1004.6
2023-04-16T08:51:50.061Z,1004.6
2023-04-16T08:53:06.306Z,1004.7
2023-04-16T08:54:22.557Z,1004.7
2023-04-16T08:55:38.781Z,1004.7
2023-04-16T08:56:55.033Z,1004.7
2023-04-16T08:58:11.272Z,1004.7
2023-04-16T08:59:27.519Z,1004.7
2023-04-16T09:00:43.748Z,1004.7
2023-04-16T09:01:59.003Z,1004.7
2023-04-16T09:03:15.254Z,1004.8
2023-04-16T09:04:31.487Z,1004.8
2023-04-16T09:05:47.721Z,1004.8
2023-04-16T09:07:03.000Z,1004.8
2023-04-16T09:08:20.207Z,1004.8
2023-04-16T09:09:36.444Z,1004.8
2023-04-16T09:10:52.695Z,1004.8
2023-04-16T09:12:08.920Z,1004.8
2023-04-16T09:13:25.170Z,1004.8
2023-04-16T09:14:41.415Z,1004.9
2023-04-16T09:15:57.644Z,1004.9
2023-04-16T09:17:13.887Z,1004.9
2023-04-16T09:18:29.000Z,1005
2023-04-16T09:19:45.394Z,1004.9
2023-04-16T09:21:01.620Z,1004.9
2023-04-16T09:22:17.871Z,1004.9
2023-04-16T09:23:34.103Z,1005
2023-04-16T09:24:50.337Z,1005
2023-04-16T09:26:06.589Z,1005
2023-04-16T09:27:22.820Z,1005
2023-04-16T09:28:39.077Z,1005
2023-04-16T09:29:55.306Z,1005
2023-04-16T09:31:11.540Z,1005
2023-04-16T09:32:27.784Z,1005
2023-04-16T09:33:44.026Z,1005
2023-04-16T09:34:59.000Z,1005
2023-04-16T09:36:15.531Z,1005
2023-04-16T09:37:31.000Z,1005.1
2023-04-16T09:38:47.997Z,1005.1
2023-04-16T09:40:04.243Z,1005
2023-04-16T09:41:20.488Z,1005.1
2023-04-16T09:42:36.716Z,1005.1
2023-04-16T09:43:52.959Z,1005.1
2023-04-16T09:45:09.000Z,1005.1
2023-04-16T09:46:25.452Z,1005.1
2023-04-16T09:47:41.685Z,1005.1
2023-04-16T09:48:57.928Z,1005.1
2023-04-16T09:50:14.169Z,1005.1
2023-04-16T09:51:29.418Z,1005.1
2023-04-16T09:52:45.661Z,1005.1
2023-04-16T09:54:01.897Z,1005.1
2023-04-16T09:55:18.135Z,1005.2
2023-04-16T09:56:34.386Z,1005.2
2023-04-16T09:57:50.629Z,1005.2
2023-04-16T09:59:06.856Z,1005.2
2023-04-16T10:00:23.000Z,1005.2
2023-04-16T10:01:39.000Z,1005.1
2023-04-16T10:02:55.586Z,1005.2
2023-04-16T10:04:11.830Z,1005.2
2023-04-16T10:05:28.064Z,1005.2
2023-04-16T10:06:44.314Z,1005.2
2023-04-16T10:07:59.567Z,1005.3
2023-04-16T10:09:15.810Z,1005.2
2023-04-16T10:10:32.041Z,1005.3
2023-04-16T10:11:48.277Z,1005.3
2023-04-16T10:13:04.522Z,1005.3
2023-04-16T10:14:20.772Z,1005.3
2023-04-16T10:15:37.003Z,1005.3
2023-04-16T10:16:53.256Z,1005.3
2023-04-16T10:18:09.473Z,1005.3
2023-04-16T10:19:25.731Z,1005.3
2023-04-16T10:20:41.971Z,1005.4
2023-04-16T10:21:58.213Z,1005.3
2023-04-16T10:23:14.442Z,1005.4
2023-04-16T10:24:29.695Z,1005.4
2023-04-16T10:25:45.938Z,1005.4
2023-04-16T10:27:02.000Z,1005.4
2023-04-16T10:28:18.430Z,1005.4
2023-04-16T10:29:34.662Z,1005.4
2023-04-16T10:30:50.894Z,1005.4
2023-04-16T10:32:07.139Z,1005.4
2023-04-16T10:33:23.374Z,1005.4
2023-04-16T10:34:39.619Z,1005.4
2023-04-16T10:35:55.869Z,1005.4
2023-04-16T10:37:12.108Z,1005.4
2023-04-16T10:38:28.344Z,1005.4
2023-04-16T10:39:44.584Z,1005.4
2023-04-16T10:40:59.842Z,1005.4
2023-04-16T10:42:16.073Z,1005.4
2023-04-16T10:43:32.314Z,1005.4
2023-04-16T10:44:48.558Z,1005.4
2023-04-16T10:46:04.790Z,1005.4
2023-04-16T10:47:21.047Z,1005.4
2023-04-16T10:48:37.275Z,1005.4
2023-04-16T10:49:53.514Z,1005.5
2023-04-16T10:51:09.755Z,1005.5
2023-04-16T10:52:26.004Z,1005.5
2023-04-16T10:53:42.233Z,1005.4
2023-04-16T10:54:58.476Z,1005.5
2023-04-16T10:56:14.724Z,1005.5
2023-04-16T10:57:29.978Z,1005.5
2023-04-16T10:58:46.214Z,1005.5
2023-04-16T11:00:02.445Z,1005.5
2023-04-16T11:01:18.685Z,1005.5
2023-04-16T11:02:34.938Z,1005.5
2023-04-16T11:03:51.177Z,1005.5
2023-04-16T11:05:06.433Z,1005.5
2023-04-16T11:06:22.679Z,1005.5
2023-04-16T11:07:38.925Z,1005.5
2023-04-16T11:08:55.154Z,1005.5
2023-04-16T11:10:11.396Z,1005.5
2023-04-16T11:11:27.642Z,1005.5
2023-04-16T11:12:43.883Z,1005.5
2023-04-16T11:14:00.000Z,1005.5
2023-04-16T11:15:16.355Z,1005.5
2023-04-16T11:16:32.588Z,1005.5
2023-04-16T11:17:48.829Z,1005.5
2023-04-16T11:19:05.080Z,1005.5
2023-04-16T11:20:21.322Z,1005.5
2023-04-16T11:21:36.565Z,1005.5
2023-04-16T11:22:52.814Z,1005.5
2023-04-16T11:24:09.053Z,1005.5
2023-04-16T11:25:25.284Z,1005.6
2023-04-16T11:26:41.539Z,1005.5
2023-04-16T11:27:57.773Z,1005.6
2023-04-16T11:29:14.011Z,1005.6
2023-04-16T11:30:30.241Z,1005.5
2023-04-16T11:31:46.480Z,1005.6
2023-04-16T11:33:02.726Z,1005.6
2023-04-16T11:34:18.965Z,1005.6
2023-04-16T11:35:35.207Z,1005.6
2023-04-16T11:36:51.448Z,1005.6
2023-04-16T11:38:06.708Z,1005.6
2023-04-16T11:39:22.942Z,1005.7
2023-04-16T11:40:39.179Z,1005.7
2023-04-16T11:41:55.425Z,1005.7
2023-04-16T11:43:11.673Z,1005.7
2023-04-16T11:44:27.908Z,1005.7
2023-04-16T11:45:44.151Z,1005.7
2023-04-16T11:47:00.381Z,1005.7
2023-04-16T11:48:16.627Z,1005.7
2023-04-16T11:49:32.860Z,1005.8
2023-04-16T11:50:49.103Z,1005.8
2023-04-16T11:52:05.343Z,1005.7
2023-04-16T11:53:21.000Z,1005.8
2023-04-16T11:54:37.945Z,1005.8
2023-04-16T11:55:54.196Z,1005.8
2023-04-16T11:57:10.440Z,1005.8
2023-04-16T11:58:26.657Z,1005.8
2023-04-16T11:59:42.899Z,1005.8
2023-04-16T12:00:59.146Z,1005.8
2023-04-16T12:02:15.395Z,1005.8
2023-04-16T12:03:31.620Z,1005.8
2023-04-16T12:04:47.865Z,1005.8
2023-04-16T12:06:04.110Z,1005.8
2023-04-16T12:07:20.348Z,1005.8
2023-04-16T12:08:36.591Z,1005.9
2023-04-16T12:09:52.819Z,1005.8
2023-04-16T12:11:08.074Z,1005.9
2023-04-16T12:12:24.000Z,1005.8
2023-04-16T12:13:40.554Z,1005.9
2023-04-16T12:14:56.796Z,1005.8
2023-04-16T12:16:13.000Z,1005.9
2023-04-16T12:17:29.281Z,1005.9
2023-04-16T12:18:45.540Z,1005.9
2023-04-16T12:20:01.763Z,1005.9
2023-04-16T12:21:18.016Z,1005.9
2023-04-16T12:22:34.238Z,1005.9
2023-04-16T12:23:50.483Z,1005.9
2023-04-16T12:25:06.734Z,1005.9
2023-04-16T12:26:22.973Z,1005.9
2023-04-16T12:27:38.223Z,1005.9
2023-04-16T12:28:54.459Z,1005.9
2023-04-16T12:30:10.000Z,1005.9
2023-04-16T12:31:26.934Z,1006
2023-04-16T12:32:43.188Z,1006
2023-04-16T12:33:59.415Z,1006
2023-04-16T12:35:15.661Z,1006
2023-04-16T12:36:31.897Z,1006
2023-04-16T12:37:48.136Z,1006
2023-04-16T12:39:04.388Z,1006
2023-04-16T12:40:20.626Z,1006
2023-04-16T12:41:36.860Z,1006
2023-04-16T12:42:53.104Z,1006
2023-04-16T12:44:08.356Z,1006.1
2023-04-16T12:45:24.598Z,1006
2023-04-16T12:46:40.848Z,1006
2023-04-16T12:47:57.081Z,1006
2023-04-16T12:49:13.316Z,1006
2023-04-16T12:50:29.557Z,1006
2023-04-16T12:51:45.800Z,1006.1
2023-04-16T12:53:02.049Z,1006
2023-04-16T12:54:18.272Z,1006
2023-04-16T12:55:34.526Z,1006.1
2023-04-16T12:56:50.761Z,1006
2023-04-16T12:58:07.000Z,1006
2023-04-16T12:59:23.240Z,1006
2023-04-16T13:00:38.494Z,1006
2023-04-16T13:01:54.744Z,1006
2023-04-16T13:03:10.975Z,1006.1
2023-04-16T13:04:27.227Z,1006
2023-04-16T13:05:43.460Z,1006
2023-04-16T13:06:59.699Z,1006
2023-04-16T13:08:15.942Z,1006.1
2023-04-16T13:09:32.174Z,1006
2023-04-16T13:10:48.412Z,1006
2023-04-16T13:12:04.663Z,1006
2023-04-16T13:13:20.905Z,1006.1
2023-04-16T13:14:37.152Z,1006.1
2023-04-16T13:15:53.387Z,1006
2023-04-16T13:17:08.646Z,1006.1
2023-04-16T13:18:24.878Z,1006.1
2023-04-16T13:19:41.115Z,1006.1
2023-04-16T13:20:57.364Z,1006.1
2023-04-16T13:22:13.592Z,1006.1
2023-04-16T13:23:29.850Z,1006.2
2023-04-16T13:24:46.089Z,1006.1
2023-04-16T13:26:02.325Z,1006.1
2023-04-16T13:27:18.562Z,1006.1
2023-04-16T13:28:34.800Z,1006.2
2023-04-16T13:29:51.037Z,1006.2
2023-04-16T13:31:07.000Z,1006.2
2023-04-16T13:32:23.529Z,1006.1
2023-04-16T13:33:38.776Z,1006.2
2023-04-16T13:34:55.000Z,1006.1
2023-04-16T13:36:11.251Z,1006.2
2023-04-16T13:37:27.489Z,1006.2
2023-04-16T13:38:43.736Z,1006.2
2023-04-16T13:39:59.980Z,1006.2
2023-04-16T13:41:16.219Z,1006.2
2023-04-16T13:42:32.460Z,1006.2
2023-04-16T13:43:48.695Z,1006.2
2023-04-16T13:45:04.931Z,1006.2
2023-04-16T13:46:21.175Z,1006.2
2023-04-16T13:47:37.427Z,1006.2
2023-04-16T13:48:53.656Z,1006.2
2023-04-16T13:50:08.910Z,1006.2
2023-04-16T13:51:25.145Z,1006.2
2023-04-16T13:52:41.391Z,1006.2
2023-04-16T13:53:57.638Z,1006.2
2023-04-16T13:55:13.875Z,1006.2
2023-04-16T13:56:30.121Z,1006.2
2023-04-16T13:57:46.349Z,1006.2
2023-04-16T13:59:02.590Z,1006.3
2023-04-16T14:00:18.827Z,1006.3
2023-04-16T14:01:35.068Z,1006.3
2023-04-16T14:02:51.317Z,1006.3
2023-04-16T14:04:07.546Z,1006.3
2023-04-16T14:05:23.798Z,1006.3
2023-04-16T14:06:39.057Z,1006.3
2023-04-16T14:07:55.281Z,1006.3
2023-04-16T14:09:11.532Z,1006.3
2023-04-16T14:10:27.772Z,1006.3
2023-04-16T14:11:44.019Z,1006.3
2023-04-16T14:13:00.255Z,1006.3
2023-04-16T14:14:16.501Z,1006.3
2023-04-16T14:15:32.722Z,1006.3
2023-04-16T14:16:48.968Z,1006.3
2023-04-16T14:18:05.216Z,1006.3
2023-04-16T14:19:21.445Z,1006.3
2023-04-16T14:20:37.000Z,1006.3
2023-04-16T14:21:53.940Z,1006.3
2023-04-16T14:23:09.191Z,1006.3
2023-04-16T14:24:25.434Z,1006.4
2023-04-16T14:25:41.665Z,1006.4
2023-04-16T14:26:57.903Z,1006.3
2023-04-16T14:28:14.156Z,1006.4
2023-04-16T14:29:30.402Z,1006.3
2023-04-16T14:30:46.626Z,1006.4
2023-04-16T14:32:02.873Z,1006.3
2023-04-16T14:33:19.107Z,1006.3
2023-04-16T14:34:35.339Z,1006.4
2023-04-16T14:35:51.594Z,1006.4
2023-04-16T14:37:07.845Z,1006.4
2023-04-16T14:38:24.072Z,1006.4
2023-04-16T14:39:39.315Z,1006.4
2023-04-16T14:40:55.568Z,1006.4
2023-04-16T14:42:11.804Z,1006.4
2023-04-16T14:43:28.039Z,1006.4
2023-04-16T14:44:44.277Z,1006.4
2023-04-16T14:46:00.532Z,1006.5
2023-04-16T14:47:16.757Z,1006.4
2023-04-16T14:48:32.998Z,1006.5
2023-04-16T14:49:49.264Z,1006.5
2023-04-16T14:51:05.483Z,1006.4
2023-04-16T14:52:21.731Z,1006.4
2023-04-16T14:53:37.000Z,1006.4
2023-04-16T14:54:54.202Z,1006.4
2023-04-16T14:56:09.452Z,1006.5
2023-04-16T14:57:25.700Z,1006.5
2023-04-16T14:58:41.962Z,1006.5
2023-04-16T14:59:58.182Z,1006.4
2023-04-16T15:01:14.425Z,1006.5
2023-04-16T15:02:30.661Z,1006.5
2023-04-16T15:03:46.903Z,1006.5
2023-04-16T15:05:03.148Z,1006.5
2023-04-16T15:06:19.376Z,1006.5
2023-04-16T15:07:35.612Z,1006.5
2023-04-16T15:08:51.854Z,1006.5
2023-04-16T15:10:08.000Z,1006.5
2023-04-16T15:11:24.341Z,1006.5
2023-04-16T15:12:39.599Z,1006.6
2023-04-16T15:13:55.842Z,1006.5
2023-04-16T15:15:12.083Z,1006.5
2023-04-16T15:16:28.325Z,1006.6
2023-04-16T15:17:44.558Z,1006.6
2023-04-16T15:19:00.794Z,1006.6
2023-04-16T15:20:16.067Z,1006.6
2023-04-16T15:21:32.000Z,1006.6
2023-04-16T15:22:48.000Z,1006.6
2023-04-16T15:24:04.778Z,1006.6
2023-04-16T15:25:21.037Z,1006.6
2023-04-16T15:26:37.253Z,1006.7
2023-04-16T15:27:53.511Z,1006.7
2023-04-16T15:29:09.744Z,1006.7
2023-04-16T15:30:25.980Z,1006.7
2023-04-16T15:31:42.216Z,1006.7
2023-04-16T15:32:58.468Z,1006.7
2023-04-16T15:34:14.000Z,1006.7
2023-04-16T15:35:30.936Z,1006.7
2023-04-16T15:36:46.193Z,1006.7
2023-04-16T15:38:02.447Z,1006.7
2023-04-16T15:39:18.672Z,1006.7
2023-04-16T15:40:34.929Z,1006.7
2023-04-16T15:41:51.157Z,1006.7
2023-04-16T15:43:07.390Z,1006.7
2023-04-16T15:44:23.647Z,1006.7
2023-04-16T15:45:39.899Z,1006.8
2023-04-16T15:46:56.114Z,1006.8
2023-04-16T15:48:12.364Z,1006.7
2023-04-16T15:49:28.599Z,1006.7
2023-04-16T15:50:44.830Z,1006.8
2023-04-16T15:52:01.082Z,1006.8
2023-04-16T15:53:16.330Z,1006.8
2023-04-16T15:54:32.578Z,1006.7
2023-04-16T15:55:48.825Z,1006.8
2023-04-16T15:57:05.055Z,1006.8
2023-04-16T15:58:21.302Z,1006.8
2023-04-16T15:59:37.547Z,1006.8